Time,TemperatureF,DewpointF,PressureIn,WindDirection,WindDirectionDegrees,WindSpeedMPH,WindSpeedGustMPH,Humidity,HourlyPrecipIn,Conditions,Clouds,dailyrainin,SoftwareType,DateUTC
2013-07-16 00:00:00,68.8,64.1,30.30,SSE,157,0.0,3.0,85,0.00,,CLR,-99.99,VWS V12.06,2013-07-16 04:00:00,
2013-07-16 00:02:00,65.5,62.8,30.26,SE,140,0.0,1.0,91,0.00,,CLR,-99.99,VWS V12.06,2013-07-16 04:02:00,
2013-07-16 00:30:00,67.7,63.4,30.30,SSE,157,1.0,1.0,86,0.00,,CLR,-99.99,VWS V12.06,2013-07-16 04:30:00,
2013-07-16 00:32:00,67.8,63.5,30.28,SSE,157,0.0,2.0,86,0.00,,CLR,-99.99,VWS V12.06,2013-07-16 04:32:00,
2013-07-16 01:00:00,67.6,63.3,30.30,SSE,158,1.0,1.0,86,0.00,,CLR,-99.99,VWS V12.06,2013-07-16 05:00:00,
2013-07-16 01:30:00,67.0,63.0,30.30,SW,227,0.0,0.0,87,0.00,,CLR,-99.99,VWS V12.06,2013-07-16 05:30:00,
2013-07-16 01:32:00,67.0,63.0,30.28,SW,227,2.0,2.0,87,0.00,,CLR,-99.99,VWS V12.06,2013-07-16 05:32:00,
2013-07-16 02:00:00,65.9,62.2,30.30,SW,228,0.0,1.0,88,0.00,,CLR,-99.99,VWS V12.06,2013-07-16 06:00:00,
2013-07-16 02:30:00,65.1,61.5,30.29,South,191,1.0,1.0,88,0.00,,CLR,-99.99,VWS V12.06,2013-07-16 06:30:00,
2013-07-16 03:00:00,64.6,61.3,30.28,West,259,3.0,3.0,89,0.00, BR,,-99.99,VWS V12.06,2013-07-16 07:00:00,
2013-07-16 03:30:00,64.7,61.1,30.28,SW,218,0.0,0.0,88,0.00, BR,,-99.99,VWS V12.06,2013-07-16 07:30:00,
2013-07-16 04:00:00,64.6,61.0,30.28,SSW,194,0.0,0.0,88,0.00, BR,,-99.99,VWS V12.06,2013-07-16 08:00:00,
2013-07-16 04:30:00,65.0,61.0,30.27,SW,230,0.0,2.0,87,0.00, BR,,-99.99,VWS V12.06,2013-07-16 08:30:00,
2013-07-16 05:00:00,66.1,61.5,30.27,West,264,0.0,4.0,85,0.00, FG,,-99.99,VWS V12.06,2013-07-16 09:00:00,
2013-07-16 05:30:00,69.5,62.7,30.28,WNW,286,3.0,4.0,79,0.00, FG,,-99.99,VWS V12.06,2013-07-16 09:30:00,
2013-07-16 06:00:00,70.4,61.7,30.28,WSW,256,0.0,0.0,74,0.00, BR,,-99.99,VWS V12.06,2013-07-16 10:00:00,
2013-07-16 06:30:00,71.0,61.9,30.28,WNW,284,0.0,1.0,73,0.00, BR,,-99.99,VWS V12.06,2013-07-16 10:30:00,
2013-07-16 07:00:00,70.2,60.8,30.28,West,262,0.0,0.0,72,0.00, FG,,-99.99,VWS V12.06,2013-07-16 11:00:00,
2013-07-16 07:30:00,67.0,61.7,30.28,NE,45,3.0,3.0,83,0.00, FG,,-99.99,VWS V12.06,2013-07-16 11:30:00,
2013-07-16 08:00:00,66.3,62.0,30.29,NNW,348,1.0,3.0,86,0.00, BR,,-99.99,VWS V12.06,2013-07-16 12:00:00,
2013-07-16 08:30:00,69.8,63.0,30.30,North,355,0.0,2.0,79,0.00, FG,,-99.99,VWS V12.06,2013-07-16 12:30:00,
2013-07-16 09:00:00,71.1,63.5,30.30,North,351,0.0,0.0,77,0.00,,CLR,-99.99,VWS V12.06,2013-07-16 13:00:00,
2013-07-16 09:30:00,71.9,64.3,30.30,North,350,0.0,1.0,77,0.00,,CLR,-99.99,VWS V12.06,2013-07-16 13:30:00,
2013-07-16 10:00:00,73.7,64.1,30.30,WNW,302,1.0,4.0,72,0.00,,CLR,-99.99,VWS V12.06,2013-07-16 14:00:00,
2013-07-16 10:30:00,74.6,65.0,30.30,North,5,0.0,7.0,72,0.00,,CLR,-99.99,VWS V12.06,2013-07-16 14:30:00,
2013-07-16 11:00:00,75.5,65.0,30.29,North,355,0.0,4.0,70,0.00,,CLR,-99.99,VWS V12.06,2013-07-16 15:00:00,
2013-07-16 11:30:00,77.3,66.8,30.29,NNE,32,5.0,5.0,70,0.00,,CLR,-99.99,VWS V12.06,2013-07-16 15:30:00,
2013-07-16 12:00:00,79.0,69.2,30.28,ENE,76,0.0,1.0,72,0.00,,CLR,-99.99,VWS V12.06,2013-07-16 16:00:00,
2013-07-16 12:30:00,78.6,68.0,30.28,NNE,15,0.0,0.0,70,0.00,,CLR,-99.99,VWS V12.06,2013-07-16 16:30:00,
2013-07-16 13:00:00,81.0,68.6,30.28,North,350,2.0,2.0,66,0.00,,CLR,-99.99,VWS V12.06,2013-07-16 17:00:00,
2013-07-16 13:30:00,81.8,71.1,30.27,ESE,106,0.0,0.0,70,0.00,,CLR,-99.99,VWS V12.06,2013-07-16 17:30:00,
2013-07-16 14:00:00,81.0,69.0,30.26,North,5,0.0,1.0,67,0.00,,CLR,-99.99,VWS V12.06,2013-07-16 18:00:00,
2013-07-16 14:30:00,81.9,68.1,30.25,North,5,0.0,3.0,63,0.00,,CLR,-99.99,VWS V12.06,2013-07-16 18:30:00,
2013-07-16 15:00:00,84.1,68.7,30.24,SSE,149,2.0,2.0,60,0.00,,SCT047,-99.99,VWS V12.06,2013-07-16 19:00:00,
2013-07-16 15:30:00,82.1,70.1,30.23,ESE,117,4.0,4.0,67,0.00,,SCT047,-99.99,VWS V12.06,2013-07-16 19:30:00,
2013-07-16 16:00:00,83.1,71.9,30.23,West,259,0.0,0.0,69,0.00,,SCT050,-99.99,VWS V12.06,2013-07-16 20:00:00,
2013-07-16 16:30:00,82.7,70.2,30.22,SSE,147,1.0,3.0,66,0.00,,SCT050,-99.99,VWS V12.06,2013-07-16 20:30:00,
2013-07-16 17:00:00,82.9,70.4,30.22,SSE,162,1.0,3.0,66,0.00,,CLR,-99.99,VWS V12.06,2013-07-16 21:00:00,
2013-07-16 17:30:00,81.4,71.1,30.22,SSW,192,0.0,3.0,71,0.00,,CLR,-99.99,VWS V12.06,2013-07-16 21:30:00,
2013-07-16 18:00:00,78.8,70.6,30.22,SW,232,0.0,5.0,76,0.00,,SCT050,-99.99,VWS V12.06,2013-07-16 22:00:00,
2013-07-16 18:30:00,76.8,69.8,30.21,SW,217,0.0,0.0,79,0.00,,SCT050,-99.99,VWS V12.06,2013-07-16 22:30:00,
2013-07-16 19:00:00,76.2,68.8,30.21,SW,217,3.0,3.0,78,0.00,,SCT070,-99.99,VWS V12.06,2013-07-16 23:00:00,
2013-07-16 19:30:00,75.7,66.0,30.23,WSW,244,0.0,0.0,72,0.00,,SCT070,-99.99,VWS V12.06,2013-07-16 23:30:00,
2013-07-16 20:00:00,75.6,65.1,30.22,WSW,246,9.0,9.0,70,0.00,,OVC050,-99.99,VWS V12.06,2013-07-17 00:00:00,
2013-07-16 20:30:00,73.2,64.8,30.24,NW,323,3.0,17.0,75,0.00, -RA,-RA,-99.99,VWS V12.06,2013-07-17 00:30:00,
2013-07-16 21:00:00,64.3,61.0,30.24,North,360,0.0,3.0,89,0.04, -RA,-RA,-99.99,VWS V12.06,2013-07-17 01:00:00,
2013-07-16 21:30:00,63.9,61.8,30.24,NW,317,1.0,3.0,93,0.04, -RA,-RA,-99.99,VWS V12.06,2013-07-17 01:30:00,
2013-07-16 22:00:00,63.6,61.5,30.25,NNE,28,10.0,11.0,93,0.00,,BKN075,-99.99,VWS V12.06,2013-07-17 02:00:00,
2013-07-16 22:30:00,64.5,62.4,30.25,ENE,67,3.0,4.0,93,0.00,,BKN075,-99.99,VWS V12.06,2013-07-17 02:30:00,
2013-07-16 23:00:00,65.3,62.6,30.24,NNW,348,2.0,10.0,91,0.00,,CLR,-99.99,VWS V12.06,2013-07-17 03:00:00,
2013-07-16 23:30:00,65.8,62.8,30.24,NNE,32,3.0,7.0,90,0.00,,CLR,-99.99,VWS V12.06,2013-07-17 03:30:00,